<?xml version="1.0" encoding="UTF-8" standalone="no" ?>
<gpx xmlns="http://www.topografix.com/GPX/1/1" xmlns:xsi="http://www.w3.org/2001/XMLSchema-instance" xsi:schemaLocation="http://www.topografix.com/GPX/1/1 http://www.topografix.com/GPX/1/1/gpx.xsd" version="1.1" creator="VisuGPX - https://www.visugpx.com">
  <metadata>
    <name>Valmasque à VTT : vers la Brague</name>
    <desc><![CDATA[Petite ballade à VTT dans des sentiers de la Valmasque en direction de Air France et La Brague.]]></desc>
  </metadata>
  <trk>
    <name><![CDATA[2010-09-29 12:01:31 +0200]]></name>
    <cmt><![CDATA[2010-09-29 12:01:31 +0200]]></cmt>
    <trkseg>
      <trkpt lat="43.61122" lon="7.02171">
        <ele>225</ele>
        <time>2010-09-29T10:01:32Z</time>
      </trkpt>
      <trkpt lat="43.61116" lon="7.02175">
        <ele>207</ele>
        <time>2010-09-29T10:02:49Z</time>
      </trkpt>
      <trkpt lat="43.61107" lon="7.02178">
        <ele>207</ele>
        <time>2010-09-29T10:02:58Z</time>
      </trkpt>
      <trkpt lat="43.61112" lon="7.0218">
        <ele>207</ele>
        <time>2010-09-29T10:03:06Z</time>
      </trkpt>
      <trkpt lat="43.61108" lon="7.02176">
        <ele>205</ele>
        <time>2010-09-29T10:03:51Z</time>
      </trkpt>
      <trkpt lat="43.61107" lon="7.02172">
        <ele>201</ele>
        <time>2010-09-29T10:04:28Z</time>
      </trkpt>
      <trkpt lat="43.61101" lon="7.0215">
        <ele>199</ele>
        <time>2010-09-29T10:04:37Z</time>
      </trkpt>
      <trkpt lat="43.61083" lon="7.02138">
        <ele>197</ele>
        <time>2010-09-29T10:04:49Z</time>
      </trkpt>
      <trkpt lat="43.61074" lon="7.02134">
        <ele>197</ele>
        <time>2010-09-29T10:04:55Z</time>
      </trkpt>
      <trkpt lat="43.61069" lon="7.02127">
        <ele>197</ele>
        <time>2010-09-29T10:04:58Z</time>
      </trkpt>
      <trkpt lat="43.61068" lon="7.0212">
        <ele>196</ele>
        <time>2010-09-29T10:05:01Z</time>
      </trkpt>
      <trkpt lat="43.61069" lon="7.02113">
        <ele>196</ele>
        <time>2010-09-29T10:05:04Z</time>
      </trkpt>
      <trkpt lat="43.61072" lon="7.02107">
        <ele>196</ele>
        <time>2010-09-29T10:05:07Z</time>
      </trkpt>
      <trkpt lat="43.61083" lon="7.021">
        <ele>196</ele>
        <time>2010-09-29T10:05:12Z</time>
      </trkpt>
      <trkpt lat="43.61124" lon="7.02114">
        <ele>195</ele>
        <time>2010-09-29T10:05:43Z</time>
      </trkpt>
      <trkpt lat="43.61126" lon="7.02112">
        <ele>194</ele>
        <time>2010-09-29T10:05:56Z</time>
      </trkpt>
      <trkpt lat="43.61124" lon="7.02106">
        <ele>194</ele>
        <time>2010-09-29T10:06:00Z</time>
      </trkpt>
      <trkpt lat="43.61118" lon="7.02094">
        <ele>194</ele>
        <time>2010-09-29T10:06:09Z</time>
      </trkpt>
      <trkpt lat="43.6112" lon="7.02066">
        <ele>194</ele>
        <time>2010-09-29T10:06:30Z</time>
      </trkpt>
      <trkpt lat="43.6112" lon="7.02059">
        <ele>194</ele>
        <time>2010-09-29T10:06:37Z</time>
      </trkpt>
      <trkpt lat="43.61132" lon="7.02031">
        <ele>197</ele>
        <time>2010-09-29T10:07:08Z</time>
      </trkpt>
      <trkpt lat="43.61155" lon="7.02">
        <ele>202</ele>
        <time>2010-09-29T10:07:41Z</time>
      </trkpt>
      <trkpt lat="43.61199" lon="7.01958">
        <ele>208</ele>
        <time>2010-09-29T10:08:14Z</time>
      </trkpt>
      <trkpt lat="43.61247" lon="7.01876">
        <ele>212</ele>
        <time>2010-09-29T10:08:42Z</time>
      </trkpt>
      <trkpt lat="43.61287" lon="7.01847">
        <ele>219</ele>
        <time>2010-09-29T10:08:52Z</time>
      </trkpt>
      <trkpt lat="43.61316" lon="7.01829">
        <ele>220</ele>
        <time>2010-09-29T10:08:58Z</time>
      </trkpt>
      <trkpt lat="43.61344" lon="7.01811">
        <ele>223</ele>
        <time>2010-09-29T10:09:05Z</time>
      </trkpt>
      <trkpt lat="43.61415" lon="7.01748">
        <ele>225</ele>
        <time>2010-09-29T10:09:23Z</time>
      </trkpt>
      <trkpt lat="43.61441" lon="7.01745">
        <ele>224</ele>
        <time>2010-09-29T10:09:29Z</time>
      </trkpt>
      <trkpt lat="43.61558" lon="7.01662">
        <ele>224</ele>
        <time>2010-09-29T10:09:54Z</time>
      </trkpt>
      <trkpt lat="43.61628" lon="7.01542">
        <ele>226</ele>
        <time>2010-09-29T10:10:26Z</time>
      </trkpt>
      <trkpt lat="43.617" lon="7.01411">
        <ele>228</ele>
        <time>2010-09-29T10:11:00Z</time>
      </trkpt>
      <trkpt lat="43.61801" lon="7.01347">
        <ele>226</ele>
        <time>2010-09-29T10:11:19Z</time>
      </trkpt>
      <trkpt lat="43.61845" lon="7.01314">
        <ele>222</ele>
        <time>2010-09-29T10:11:28Z</time>
      </trkpt>
      <trkpt lat="43.61859" lon="7.01297">
        <ele>222</ele>
        <time>2010-09-29T10:11:43Z</time>
      </trkpt>
      <trkpt lat="43.61864" lon="7.01292">
        <ele>221</ele>
        <time>2010-09-29T10:11:53Z</time>
      </trkpt>
      <trkpt lat="43.61938" lon="7.01203">
        <ele>219</ele>
        <time>2010-09-29T10:12:23Z</time>
      </trkpt>
      <trkpt lat="43.6195" lon="7.0116">
        <ele>218</ele>
        <time>2010-09-29T10:12:33Z</time>
      </trkpt>
      <trkpt lat="43.61959" lon="7.01128">
        <ele>220</ele>
        <time>2010-09-29T10:12:38Z</time>
      </trkpt>
      <trkpt lat="43.61968" lon="7.01114">
        <ele>219</ele>
        <time>2010-09-29T10:12:41Z</time>
      </trkpt>
      <trkpt lat="43.6199" lon="7.01108">
        <ele>219</ele>
        <time>2010-09-29T10:12:47Z</time>
      </trkpt>
      <trkpt lat="43.61999" lon="7.01095">
        <ele>218</ele>
        <time>2010-09-29T10:12:50Z</time>
      </trkpt>
      <trkpt lat="43.62039" lon="7.00992">
        <ele>219</ele>
        <time>2010-09-29T10:13:21Z</time>
      </trkpt>
      <trkpt lat="43.6207" lon="7.00931">
        <ele>220</ele>
        <time>2010-09-29T10:13:54Z</time>
      </trkpt>
      <trkpt lat="43.62095" lon="7.009">
        <ele>223</ele>
        <time>2010-09-29T10:14:27Z</time>
      </trkpt>
      <trkpt lat="43.62119" lon="7.00876">
        <ele>225</ele>
        <time>2010-09-29T10:15:09Z</time>
      </trkpt>
      <trkpt lat="43.62143" lon="7.00862">
        <ele>226</ele>
        <time>2010-09-29T10:15:26Z</time>
      </trkpt>
      <trkpt lat="43.62146" lon="7.00856">
        <ele>227</ele>
        <time>2010-09-29T10:15:46Z</time>
      </trkpt>
      <trkpt lat="43.62166" lon="7.00842">
        <ele>228</ele>
        <time>2010-09-29T10:15:53Z</time>
      </trkpt>
      <trkpt lat="43.623" lon="7.00778">
        <ele>236</ele>
        <time>2010-09-29T10:16:18Z</time>
      </trkpt>
      <trkpt lat="43.62332" lon="7.0076">
        <ele>235</ele>
        <time>2010-09-29T10:16:23Z</time>
      </trkpt>
      <trkpt lat="43.62341" lon="7.00759">
        <ele>235</ele>
        <time>2010-09-29T10:16:25Z</time>
      </trkpt>
      <trkpt lat="43.62357" lon="7.00764">
        <ele>235</ele>
        <time>2010-09-29T10:16:31Z</time>
      </trkpt>
      <trkpt lat="43.62362" lon="7.0076">
        <ele>235</ele>
        <time>2010-09-29T10:16:33Z</time>
      </trkpt>
      <trkpt lat="43.62366" lon="7.00752">
        <ele>235</ele>
        <time>2010-09-29T10:16:35Z</time>
      </trkpt>
      <trkpt lat="43.62373" lon="7.00729">
        <ele>235</ele>
        <time>2010-09-29T10:16:40Z</time>
      </trkpt>
      <trkpt lat="43.62487" lon="7.00636">
        <ele>232</ele>
        <time>2010-09-29T10:17:10Z</time>
      </trkpt>
      <trkpt lat="43.62566" lon="7.00574">
        <ele>232</ele>
        <time>2010-09-29T10:17:41Z</time>
      </trkpt>
      <trkpt lat="43.62659" lon="7.00548">
        <ele>235</ele>
        <time>2010-09-29T10:18:12Z</time>
      </trkpt>
      <trkpt lat="43.62761" lon="7.00576">
        <ele>238</ele>
        <time>2010-09-29T10:18:43Z</time>
      </trkpt>
      <trkpt lat="43.62841" lon="7.00614">
        <ele>242</ele>
        <time>2010-09-29T10:19:12Z</time>
      </trkpt>
      <trkpt lat="43.62838" lon="7.00623">
        <ele>243</ele>
        <time>2010-09-29T10:19:15Z</time>
      </trkpt>
      <trkpt lat="43.62822" lon="7.00658">
        <ele>244</ele>
        <time>2010-09-29T10:19:25Z</time>
      </trkpt>
      <trkpt lat="43.62812" lon="7.00676">
        <ele>246</ele>
        <time>2010-09-29T10:19:29Z</time>
      </trkpt>
      <trkpt lat="43.62744" lon="7.00808">
        <ele>245</ele>
        <time>2010-09-29T10:20:03Z</time>
      </trkpt>
      <trkpt lat="43.62693" lon="7.00908">
        <ele>243</ele>
        <time>2010-09-29T10:20:41Z</time>
      </trkpt>
      <trkpt lat="43.62665" lon="7.01003">
        <ele>239</ele>
        <time>2010-09-29T10:21:12Z</time>
      </trkpt>
      <trkpt lat="43.62656" lon="7.01095">
        <ele>234</ele>
        <time>2010-09-29T10:21:43Z</time>
      </trkpt>
      <trkpt lat="43.62652" lon="7.01157">
        <ele>230</ele>
        <time>2010-09-29T10:22:16Z</time>
      </trkpt>
      <trkpt lat="43.62651" lon="7.01203">
        <ele>228</ele>
        <time>2010-09-29T10:22:40Z</time>
      </trkpt>
      <trkpt lat="43.62637" lon="7.01266">
        <ele>227</ele>
        <time>2010-09-29T10:23:11Z</time>
      </trkpt>
      <trkpt lat="43.62621" lon="7.01336">
        <ele>224</ele>
        <time>2010-09-29T10:23:44Z</time>
      </trkpt>
      <trkpt lat="43.62602" lon="7.01409">
        <ele>219</ele>
        <time>2010-09-29T10:24:21Z</time>
      </trkpt>
      <trkpt lat="43.62584" lon="7.01487">
        <ele>214</ele>
        <time>2010-09-29T10:24:41Z</time>
      </trkpt>
      <trkpt lat="43.62577" lon="7.01498">
        <ele>214</ele>
        <time>2010-09-29T10:24:46Z</time>
      </trkpt>
      <trkpt lat="43.62564" lon="7.01504">
        <ele>214</ele>
        <time>2010-09-29T10:24:49Z</time>
      </trkpt>
      <trkpt lat="43.625" lon="7.01544">
        <ele>205</ele>
        <time>2010-09-29T10:25:01Z</time>
      </trkpt>
      <trkpt lat="43.62436" lon="7.01565">
        <ele>205</ele>
        <time>2010-09-29T10:25:18Z</time>
      </trkpt>
      <trkpt lat="43.6243" lon="7.01577">
        <ele>205</ele>
        <time>2010-09-29T10:25:22Z</time>
      </trkpt>
      <trkpt lat="43.62432" lon="7.01585">
        <ele>206</ele>
        <time>2010-09-29T10:25:36Z</time>
      </trkpt>
      <trkpt lat="43.6244" lon="7.01595">
        <ele>206</ele>
        <time>2010-09-29T10:25:42Z</time>
      </trkpt>
      <trkpt lat="43.62443" lon="7.01629">
        <ele>207</ele>
        <time>2010-09-29T10:26:01Z</time>
      </trkpt>
      <trkpt lat="43.62448" lon="7.01643">
        <ele>208</ele>
        <time>2010-09-29T10:26:12Z</time>
      </trkpt>
      <trkpt lat="43.62477" lon="7.01724">
        <ele>215</ele>
        <time>2010-09-29T10:26:45Z</time>
      </trkpt>
      <trkpt lat="43.62492" lon="7.01823">
        <ele>222</ele>
        <time>2010-09-29T10:27:18Z</time>
      </trkpt>
      <trkpt lat="43.62506" lon="7.01848">
        <ele>224</ele>
        <time>2010-09-29T10:27:30Z</time>
      </trkpt>
      <trkpt lat="43.62509" lon="7.01878">
        <ele>224</ele>
        <time>2010-09-29T10:27:35Z</time>
      </trkpt>
      <trkpt lat="43.62497" lon="7.01926">
        <ele>226</ele>
        <time>2010-09-29T10:27:46Z</time>
      </trkpt>
      <trkpt lat="43.62495" lon="7.01959">
        <ele>228</ele>
        <time>2010-09-29T10:28:00Z</time>
      </trkpt>
      <trkpt lat="43.62484" lon="7.01981">
        <ele>230</ele>
        <time>2010-09-29T10:28:08Z</time>
      </trkpt>
      <trkpt lat="43.62464" lon="7.02063">
        <ele>238</ele>
        <time>2010-09-29T10:28:39Z</time>
      </trkpt>
      <trkpt lat="43.62475" lon="7.02136">
        <ele>241</ele>
        <time>2010-09-29T10:28:57Z</time>
      </trkpt>
      <trkpt lat="43.62498" lon="7.02287">
        <ele>244</ele>
        <time>2010-09-29T10:29:27Z</time>
      </trkpt>
      <trkpt lat="43.62487" lon="7.02311">
        <ele>244</ele>
        <time>2010-09-29T10:29:32Z</time>
      </trkpt>
      <trkpt lat="43.6246" lon="7.02343">
        <ele>240</ele>
        <time>2010-09-29T10:29:39Z</time>
      </trkpt>
      <trkpt lat="43.62376" lon="7.02459">
        <ele>230</ele>
        <time>2010-09-29T10:30:04Z</time>
      </trkpt>
      <trkpt lat="43.6238" lon="7.02473">
        <ele>230</ele>
        <time>2010-09-29T10:30:09Z</time>
      </trkpt>
      <trkpt lat="43.6239" lon="7.02507">
        <ele>230</ele>
        <time>2010-09-29T10:30:17Z</time>
      </trkpt>
      <trkpt lat="43.62453" lon="7.0261">
        <ele>235</ele>
        <time>2010-09-29T10:30:37Z</time>
      </trkpt>
      <trkpt lat="43.62492" lon="7.02625">
        <ele>234</ele>
        <time>2010-09-29T10:30:45Z</time>
      </trkpt>
      <trkpt lat="43.62591" lon="7.02633">
        <ele>232</ele>
        <time>2010-09-29T10:31:07Z</time>
      </trkpt>
      <trkpt lat="43.6275" lon="7.02618">
        <ele>210</ele>
        <time>2010-09-29T10:31:39Z</time>
      </trkpt>
      <trkpt lat="43.62799" lon="7.02685">
        <ele>203</ele>
        <time>2010-09-29T10:31:53Z</time>
      </trkpt>
      <trkpt lat="43.62849" lon="7.02717">
        <ele>201</ele>
        <time>2010-09-29T10:32:04Z</time>
      </trkpt>
      <trkpt lat="43.62862" lon="7.02743">
        <ele>193</ele>
        <time>2010-09-29T10:32:08Z</time>
      </trkpt>
      <trkpt lat="43.6287" lon="7.02747">
        <ele>191</ele>
        <time>2010-09-29T10:32:10Z</time>
      </trkpt>
      <trkpt lat="43.6289" lon="7.02754">
        <ele>189</ele>
        <time>2010-09-29T10:32:16Z</time>
      </trkpt>
      <trkpt lat="43.62899" lon="7.0276">
        <ele>188</ele>
        <time>2010-09-29T10:32:19Z</time>
      </trkpt>
      <trkpt lat="43.62906" lon="7.0277">
        <ele>188</ele>
        <time>2010-09-29T10:32:23Z</time>
      </trkpt>
      <trkpt lat="43.62908" lon="7.02784">
        <ele>186</ele>
        <time>2010-09-29T10:33:12Z</time>
      </trkpt>
      <trkpt lat="43.62915" lon="7.02877">
        <ele>181</ele>
        <time>2010-09-29T10:33:44Z</time>
      </trkpt>
      <trkpt lat="43.62912" lon="7.02969">
        <ele>181</ele>
        <time>2010-09-29T10:34:18Z</time>
      </trkpt>
      <trkpt lat="43.62904" lon="7.03044">
        <ele>180</ele>
        <time>2010-09-29T10:34:39Z</time>
      </trkpt>
      <trkpt lat="43.62901" lon="7.03148">
        <ele>184</ele>
        <time>2010-09-29T10:35:09Z</time>
      </trkpt>
      <trkpt lat="43.62878" lon="7.03203">
        <ele>185</ele>
        <time>2010-09-29T10:35:28Z</time>
      </trkpt>
      <trkpt lat="43.62882" lon="7.03226">
        <ele>186</ele>
        <time>2010-09-29T10:35:36Z</time>
      </trkpt>
      <trkpt lat="43.6292" lon="7.03314">
        <ele>193</ele>
        <time>2010-09-29T10:36:09Z</time>
      </trkpt>
      <trkpt lat="43.62909" lon="7.03417">
        <ele>197</ele>
        <time>2010-09-29T10:36:39Z</time>
      </trkpt>
      <trkpt lat="43.62855" lon="7.0352">
        <ele>199</ele>
        <time>2010-09-29T10:37:10Z</time>
      </trkpt>
      <trkpt lat="43.62838" lon="7.03577">
        <ele>201</ele>
        <time>2010-09-29T10:37:25Z</time>
      </trkpt>
      <trkpt lat="43.6284" lon="7.03585">
        <ele>201</ele>
        <time>2010-09-29T10:37:28Z</time>
      </trkpt>
      <trkpt lat="43.62844" lon="7.03588">
        <ele>202</ele>
        <time>2010-09-29T10:37:31Z</time>
      </trkpt>
      <trkpt lat="43.62869" lon="7.036">
        <ele>204</ele>
        <time>2010-09-29T10:37:50Z</time>
      </trkpt>
      <trkpt lat="43.62923" lon="7.0367">
        <ele>211</ele>
        <time>2010-09-29T10:38:23Z</time>
      </trkpt>
      <trkpt lat="43.62926" lon="7.03683">
        <ele>212</ele>
        <time>2010-09-29T10:38:29Z</time>
      </trkpt>
      <trkpt lat="43.62933" lon="7.03723">
        <ele>214</ele>
        <time>2010-09-29T10:38:42Z</time>
      </trkpt>
      <trkpt lat="43.62941" lon="7.03734">
        <ele>215</ele>
        <time>2010-09-29T10:38:47Z</time>
      </trkpt>
      <trkpt lat="43.62942" lon="7.03748">
        <ele>215</ele>
        <time>2010-09-29T10:38:51Z</time>
      </trkpt>
      <trkpt lat="43.62932" lon="7.03795">
        <ele>215</ele>
        <time>2010-09-29T10:39:01Z</time>
      </trkpt>
      <trkpt lat="43.62924" lon="7.03811">
        <ele>215</ele>
        <time>2010-09-29T10:39:05Z</time>
      </trkpt>
      <trkpt lat="43.62922" lon="7.03825">
        <ele>215</ele>
        <time>2010-09-29T10:39:08Z</time>
      </trkpt>
      <trkpt lat="43.62926" lon="7.03935">
        <ele>217</ele>
        <time>2010-09-29T10:39:35Z</time>
      </trkpt>
      <trkpt lat="43.62955" lon="7.04034">
        <ele>210</ele>
        <time>2010-09-29T10:40:01Z</time>
      </trkpt>
      <trkpt lat="43.6298" lon="7.04056">
        <ele>210</ele>
        <time>2010-09-29T10:40:11Z</time>
      </trkpt>
      <trkpt lat="43.63003" lon="7.04055">
        <ele>209</ele>
        <time>2010-09-29T10:40:22Z</time>
      </trkpt>
      <trkpt lat="43.63013" lon="7.04061">
        <ele>209</ele>
        <time>2010-09-29T10:40:27Z</time>
      </trkpt>
      <trkpt lat="43.63016" lon="7.04067">
        <ele>209</ele>
        <time>2010-09-29T10:40:31Z</time>
      </trkpt>
      <trkpt lat="43.63025" lon="7.0407">
        <ele>209</ele>
        <time>2010-09-29T10:40:36Z</time>
      </trkpt>
      <trkpt lat="43.63033" lon="7.04077">
        <ele>210</ele>
        <time>2010-09-29T10:40:41Z</time>
      </trkpt>
      <trkpt lat="43.63037" lon="7.04089">
        <ele>210</ele>
        <time>2010-09-29T10:40:50Z</time>
      </trkpt>
      <trkpt lat="43.63061" lon="7.04116">
        <ele>212</ele>
        <time>2010-09-29T10:41:10Z</time>
      </trkpt>
      <trkpt lat="43.63126" lon="7.04179">
        <ele>217</ele>
        <time>2010-09-29T10:41:42Z</time>
      </trkpt>
      <trkpt lat="43.63153" lon="7.04235">
        <ele>218</ele>
        <time>2010-09-29T10:42:05Z</time>
      </trkpt>
      <trkpt lat="43.63171" lon="7.04276">
        <ele>218</ele>
        <time>2010-09-29T10:42:31Z</time>
      </trkpt>
      <trkpt lat="43.63171" lon="7.04289">
        <ele>217</ele>
        <time>2010-09-29T10:42:33Z</time>
      </trkpt>
      <trkpt lat="43.63166" lon="7.04294">
        <ele>217</ele>
        <time>2010-09-29T10:42:35Z</time>
      </trkpt>
      <trkpt lat="43.63163" lon="7.04301">
        <ele>216</ele>
        <time>2010-09-29T10:42:41Z</time>
      </trkpt>
      <trkpt lat="43.63151" lon="7.04307">
        <ele>214</ele>
        <time>2010-09-29T10:42:49Z</time>
      </trkpt>
      <trkpt lat="43.63084" lon="7.04359">
        <ele>209</ele>
        <time>2010-09-29T10:43:19Z</time>
      </trkpt>
      <trkpt lat="43.62984" lon="7.04382">
        <ele>203</ele>
        <time>2010-09-29T10:43:50Z</time>
      </trkpt>
      <trkpt lat="43.62925" lon="7.0438">
        <ele>200</ele>
        <time>2010-09-29T10:44:09Z</time>
      </trkpt>
      <trkpt lat="43.6292" lon="7.04376">
        <ele>199</ele>
        <time>2010-09-29T10:44:14Z</time>
      </trkpt>
      <trkpt lat="43.62918" lon="7.0437">
        <ele>199</ele>
        <time>2010-09-29T10:44:19Z</time>
      </trkpt>
      <trkpt lat="43.62913" lon="7.04368">
        <ele>198</ele>
        <time>2010-09-29T10:44:23Z</time>
      </trkpt>
      <trkpt lat="43.62909" lon="7.04371">
        <ele>197</ele>
        <time>2010-09-29T10:44:28Z</time>
      </trkpt>
      <trkpt lat="43.62907" lon="7.04378">
        <ele>197</ele>
        <time>2010-09-29T10:44:30Z</time>
      </trkpt>
      <trkpt lat="43.62899" lon="7.04458">
        <ele>191</ele>
        <time>2010-09-29T10:44:45Z</time>
      </trkpt>
      <trkpt lat="43.62907" lon="7.04501">
        <ele>190</ele>
        <time>2010-09-29T10:45:04Z</time>
      </trkpt>
      <trkpt lat="43.62942" lon="7.04543">
        <ele>191</ele>
        <time>2010-09-29T10:45:28Z</time>
      </trkpt>
      <trkpt lat="43.62987" lon="7.04571">
        <ele>193</ele>
        <time>2010-09-29T10:46:01Z</time>
      </trkpt>
      <trkpt lat="43.63024" lon="7.04612">
        <ele>194</ele>
        <time>2010-09-29T10:46:15Z</time>
      </trkpt>
      <trkpt lat="43.63075" lon="7.04635">
        <ele>197</ele>
        <time>2010-09-29T10:46:33Z</time>
      </trkpt>
      <trkpt lat="43.6309" lon="7.04677">
        <ele>196</ele>
        <time>2010-09-29T10:46:42Z</time>
      </trkpt>
      <trkpt lat="43.63095" lon="7.04729">
        <ele>194</ele>
        <time>2010-09-29T10:46:53Z</time>
      </trkpt>
      <trkpt lat="43.63107" lon="7.04749">
        <ele>192</ele>
        <time>2010-09-29T10:47:02Z</time>
      </trkpt>
      <trkpt lat="43.6312" lon="7.04761">
        <ele>191</ele>
        <time>2010-09-29T10:47:07Z</time>
      </trkpt>
      <trkpt lat="43.63123" lon="7.04775">
        <ele>190</ele>
        <time>2010-09-29T10:47:11Z</time>
      </trkpt>
      <trkpt lat="43.63149" lon="7.04887">
        <ele>181</ele>
        <time>2010-09-29T10:47:44Z</time>
      </trkpt>
      <trkpt lat="43.63156" lon="7.04943">
        <ele>174</ele>
        <time>2010-09-29T10:48:03Z</time>
      </trkpt>
      <trkpt lat="43.63165" lon="7.04945">
        <ele>171</ele>
        <time>2010-09-29T10:48:11Z</time>
      </trkpt>
      <trkpt lat="43.63174" lon="7.04941">
        <ele>167</ele>
        <time>2010-09-29T10:48:22Z</time>
      </trkpt>
      <trkpt lat="43.63187" lon="7.04917">
        <ele>164</ele>
        <time>2010-09-29T10:48:32Z</time>
      </trkpt>
      <trkpt lat="43.63189" lon="7.04906">
        <ele>162</ele>
        <time>2010-09-29T10:48:40Z</time>
      </trkpt>
      <trkpt lat="43.63192" lon="7.04901">
        <ele>160</ele>
        <time>2010-09-29T10:48:44Z</time>
      </trkpt>
      <trkpt lat="43.63195" lon="7.04902">
        <ele>159</ele>
        <time>2010-09-29T10:48:52Z</time>
      </trkpt>
      <trkpt lat="43.63198" lon="7.0491">
        <ele>157</ele>
        <time>2010-09-29T10:48:59Z</time>
      </trkpt>
      <trkpt lat="43.632" lon="7.04948">
        <ele>154</ele>
        <time>2010-09-29T10:49:12Z</time>
      </trkpt>
      <trkpt lat="43.63193" lon="7.05013">
        <ele>147</ele>
        <time>2010-09-29T10:49:32Z</time>
      </trkpt>
      <trkpt lat="43.63211" lon="7.05106">
        <ele>141</ele>
        <time>2010-09-29T10:50:05Z</time>
      </trkpt>
      <trkpt lat="43.63198" lon="7.05209">
        <ele>136</ele>
        <time>2010-09-29T10:50:38Z</time>
      </trkpt>
      <trkpt lat="43.63222" lon="7.05256">
        <ele>136</ele>
        <time>2010-09-29T10:50:56Z</time>
      </trkpt>
      <trkpt lat="43.6323" lon="7.05262">
        <ele>136</ele>
        <time>2010-09-29T10:51:00Z</time>
      </trkpt>
      <trkpt lat="43.63241" lon="7.05284">
        <ele>135</ele>
        <time>2010-09-29T10:51:08Z</time>
      </trkpt>
      <trkpt lat="43.63241" lon="7.05319">
        <ele>133</ele>
        <time>2010-09-29T10:51:18Z</time>
      </trkpt>
      <trkpt lat="43.63227" lon="7.05377">
        <ele>124</ele>
        <time>2010-09-29T10:51:49Z</time>
      </trkpt>
      <trkpt lat="43.63184" lon="7.05483">
        <ele>117</ele>
        <time>2010-09-29T10:52:20Z</time>
      </trkpt>
      <trkpt lat="43.63168" lon="7.05594">
        <ele>114</ele>
        <time>2010-09-29T10:52:51Z</time>
      </trkpt>
      <trkpt lat="43.63158" lon="7.05641">
        <ele>115</ele>
        <time>2010-09-29T10:53:10Z</time>
      </trkpt>
      <trkpt lat="43.63165" lon="7.05673">
        <ele>115</ele>
        <time>2010-09-29T10:53:25Z</time>
      </trkpt>
      <trkpt lat="43.63172" lon="7.05684">
        <ele>117</ele>
        <time>2010-09-29T10:53:42Z</time>
      </trkpt>
      <trkpt lat="43.63176" lon="7.05691">
        <ele>117</ele>
        <time>2010-09-29T10:53:46Z</time>
      </trkpt>
      <trkpt lat="43.63177" lon="7.05698">
        <ele>117</ele>
        <time>2010-09-29T10:53:50Z</time>
      </trkpt>
      <trkpt lat="43.63175" lon="7.05712">
        <ele>117</ele>
        <time>2010-09-29T10:54:01Z</time>
      </trkpt>
      <trkpt lat="43.63171" lon="7.05734">
        <ele>115</ele>
        <time>2010-09-29T10:54:20Z</time>
      </trkpt>
      <trkpt lat="43.63132" lon="7.05786">
        <ele>110</ele>
        <time>2010-09-29T10:54:50Z</time>
      </trkpt>
      <trkpt lat="43.6307" lon="7.05832">
        <ele>106</ele>
        <time>2010-09-29T10:55:22Z</time>
      </trkpt>
      <trkpt lat="43.63057" lon="7.05866">
        <ele>104</ele>
        <time>2010-09-29T10:55:36Z</time>
      </trkpt>
      <trkpt lat="43.63054" lon="7.0598">
        <ele>107</ele>
        <time>2010-09-29T10:56:09Z</time>
      </trkpt>
      <trkpt lat="43.63051" lon="7.06041">
        <ele>110</ele>
        <time>2010-09-29T10:56:22Z</time>
      </trkpt>
      <trkpt lat="43.6307" lon="7.06079">
        <ele>114</ele>
        <time>2010-09-29T10:56:34Z</time>
      </trkpt>
      <trkpt lat="43.63073" lon="7.06085">
        <ele>114</ele>
        <time>2010-09-29T10:56:38Z</time>
      </trkpt>
      <trkpt lat="43.63075" lon="7.06098">
        <ele>114</ele>
        <time>2010-09-29T10:57:04Z</time>
      </trkpt>
      <trkpt lat="43.63071" lon="7.06103">
        <ele>114</ele>
        <time>2010-09-29T10:57:09Z</time>
      </trkpt>
      <trkpt lat="43.63072" lon="7.06108">
        <ele>112</ele>
        <time>2010-09-29T10:58:06Z</time>
      </trkpt>
      <trkpt lat="43.63072" lon="7.06114">
        <ele>110</ele>
        <time>2010-09-29T10:58:17Z</time>
      </trkpt>
      <trkpt lat="43.63066" lon="7.06126">
        <ele>109</ele>
        <time>2010-09-29T10:58:23Z</time>
      </trkpt>
      <trkpt lat="43.63059" lon="7.06135">
        <ele>107</ele>
        <time>2010-09-29T10:58:29Z</time>
      </trkpt>
      <trkpt lat="43.63053" lon="7.06148">
        <ele>106</ele>
        <time>2010-09-29T10:58:36Z</time>
      </trkpt>
      <trkpt lat="43.63036" lon="7.06171">
        <ele>104</ele>
        <time>2010-09-29T10:58:44Z</time>
      </trkpt>
      <trkpt lat="43.62997" lon="7.0627">
        <ele>103</ele>
        <time>2010-09-29T10:59:15Z</time>
      </trkpt>
      <trkpt lat="43.62991" lon="7.06279">
        <ele>103</ele>
        <time>2010-09-29T10:59:19Z</time>
      </trkpt>
      <trkpt lat="43.62994" lon="7.06283">
        <ele>101</ele>
        <time>2010-09-29T10:59:36Z</time>
      </trkpt>
      <trkpt lat="43.63076" lon="7.06288">
        <ele>98</ele>
        <time>2010-09-29T11:00:10Z</time>
      </trkpt>
      <trkpt lat="43.63081" lon="7.06285">
        <ele>97</ele>
        <time>2010-09-29T11:00:14Z</time>
      </trkpt>
      <trkpt lat="43.63092" lon="7.06285">
        <ele>97</ele>
        <time>2010-09-29T11:00:21Z</time>
      </trkpt>
      <trkpt lat="43.63096" lon="7.06282">
        <ele>97</ele>
        <time>2010-09-29T11:00:26Z</time>
      </trkpt>
      <trkpt lat="43.63097" lon="7.06278">
        <ele>96</ele>
        <time>2010-09-29T11:01:21Z</time>
      </trkpt>
      <trkpt lat="43.63092" lon="7.06277">
        <ele>95</ele>
        <time>2010-09-29T11:01:25Z</time>
      </trkpt>
      <trkpt lat="43.63025" lon="7.06278">
        <ele>88</ele>
        <time>2010-09-29T11:01:57Z</time>
      </trkpt>
      <trkpt lat="43.6295" lon="7.0631">
        <ele>85</ele>
        <time>2010-09-29T11:02:28Z</time>
      </trkpt>
      <trkpt lat="43.62885" lon="7.06354">
        <ele>85</ele>
        <time>2010-09-29T11:02:58Z</time>
      </trkpt>
      <trkpt lat="43.62828" lon="7.06398">
        <ele>87</ele>
        <time>2010-09-29T11:03:30Z</time>
      </trkpt>
      <trkpt lat="43.62782" lon="7.06421">
        <ele>89</ele>
        <time>2010-09-29T11:04:03Z</time>
      </trkpt>
      <trkpt lat="43.62751" lon="7.06412">
        <ele>93</ele>
        <time>2010-09-29T11:04:33Z</time>
      </trkpt>
      <trkpt lat="43.62723" lon="7.06386">
        <ele>97</ele>
        <time>2010-09-29T11:05:04Z</time>
      </trkpt>
      <trkpt lat="43.62698" lon="7.06345">
        <ele>105</ele>
        <time>2010-09-29T11:05:40Z</time>
      </trkpt>
      <trkpt lat="43.62672" lon="7.06308">
        <ele>113</ele>
        <time>2010-09-29T11:06:11Z</time>
      </trkpt>
      <trkpt lat="43.62653" lon="7.06257">
        <ele>119</ele>
        <time>2010-09-29T11:06:42Z</time>
      </trkpt>
      <trkpt lat="43.62655" lon="7.06183">
        <ele>125</ele>
        <time>2010-09-29T11:07:14Z</time>
      </trkpt>
      <trkpt lat="43.62661" lon="7.0614">
        <ele>127</ele>
        <time>2010-09-29T11:07:36Z</time>
      </trkpt>
      <trkpt lat="43.62688" lon="7.06098">
        <ele>133</ele>
        <time>2010-09-29T11:08:11Z</time>
      </trkpt>
      <trkpt lat="43.62701" lon="7.06069">
        <ele>136</ele>
        <time>2010-09-29T11:08:29Z</time>
      </trkpt>
      <trkpt lat="43.62699" lon="7.06047">
        <ele>139</ele>
        <time>2010-09-29T11:08:40Z</time>
      </trkpt>
      <trkpt lat="43.62708" lon="7.06039">
        <ele>140</ele>
        <time>2010-09-29T11:08:48Z</time>
      </trkpt>
      <trkpt lat="43.62717" lon="7.0604">
        <ele>141</ele>
        <time>2010-09-29T11:08:53Z</time>
      </trkpt>
      <trkpt lat="43.62746" lon="7.06065">
        <ele>146</ele>
        <time>2010-09-29T11:09:18Z</time>
      </trkpt>
      <trkpt lat="43.62755" lon="7.06086">
        <ele>148</ele>
        <time>2010-09-29T11:09:30Z</time>
      </trkpt>
      <trkpt lat="43.62764" lon="7.06131">
        <ele>154</ele>
        <time>2010-09-29T11:09:55Z</time>
      </trkpt>
      <trkpt lat="43.62769" lon="7.06133">
        <ele>154</ele>
        <time>2010-09-29T11:09:59Z</time>
      </trkpt>
      <trkpt lat="43.62783" lon="7.06129">
        <ele>156</ele>
        <time>2010-09-29T11:10:10Z</time>
      </trkpt>
      <trkpt lat="43.62796" lon="7.06113">
        <ele>158</ele>
        <time>2010-09-29T11:10:23Z</time>
      </trkpt>
      <trkpt lat="43.62795" lon="7.06105">
        <ele>159</ele>
        <time>2010-09-29T11:10:27Z</time>
      </trkpt>
      <trkpt lat="43.62755" lon="7.06027">
        <ele>163</ele>
        <time>2010-09-29T11:10:57Z</time>
      </trkpt>
      <trkpt lat="43.62677" lon="7.05971">
        <ele>167</ele>
        <time>2010-09-29T11:11:27Z</time>
      </trkpt>
      <trkpt lat="43.62588" lon="7.05923">
        <ele>169</ele>
        <time>2010-09-29T11:11:59Z</time>
      </trkpt>
      <trkpt lat="43.62579" lon="7.05919">
        <ele>169</ele>
        <time>2010-09-29T11:12:02Z</time>
      </trkpt>
      <trkpt lat="43.62498" lon="7.05951">
        <ele>170</ele>
        <time>2010-09-29T11:12:29Z</time>
      </trkpt>
      <trkpt lat="43.62472" lon="7.05912">
        <ele>169</ele>
        <time>2010-09-29T11:12:44Z</time>
      </trkpt>
      <trkpt lat="43.62456" lon="7.05907">
        <ele>168</ele>
        <time>2010-09-29T11:12:49Z</time>
      </trkpt>
      <trkpt lat="43.62425" lon="7.05919">
        <ele>166</ele>
        <time>2010-09-29T11:13:01Z</time>
      </trkpt>
      <trkpt lat="43.62421" lon="7.05927">
        <ele>166</ele>
        <time>2010-09-29T11:13:04Z</time>
      </trkpt>
      <trkpt lat="43.62422" lon="7.05944">
        <ele>165</ele>
        <time>2010-09-29T11:13:10Z</time>
      </trkpt>
      <trkpt lat="43.62424" lon="7.05951">
        <ele>164</ele>
        <time>2010-09-29T11:13:13Z</time>
      </trkpt>
      <trkpt lat="43.62423" lon="7.05958">
        <ele>163</ele>
        <time>2010-09-29T11:13:19Z</time>
      </trkpt>
      <trkpt lat="43.6242" lon="7.05964">
        <ele>163</ele>
        <time>2010-09-29T11:13:22Z</time>
      </trkpt>
      <trkpt lat="43.62415" lon="7.05966">
        <ele>162</ele>
        <time>2010-09-29T11:13:25Z</time>
      </trkpt>
      <trkpt lat="43.6241" lon="7.05963">
        <ele>162</ele>
        <time>2010-09-29T11:13:28Z</time>
      </trkpt>
      <trkpt lat="43.62406" lon="7.05959">
        <ele>161</ele>
        <time>2010-09-29T11:13:31Z</time>
      </trkpt>
      <trkpt lat="43.62403" lon="7.05949">
        <ele>161</ele>
        <time>2010-09-29T11:13:34Z</time>
      </trkpt>
      <trkpt lat="43.62406" lon="7.05929">
        <ele>161</ele>
        <time>2010-09-29T11:13:38Z</time>
      </trkpt>
      <trkpt lat="43.62475" lon="7.05728">
        <ele>150</ele>
        <time>2010-09-29T11:14:08Z</time>
      </trkpt>
      <trkpt lat="43.62477" lon="7.05712">
        <ele>150</ele>
        <time>2010-09-29T11:14:10Z</time>
      </trkpt>
      <trkpt lat="43.62472" lon="7.05698">
        <ele>150</ele>
        <time>2010-09-29T11:14:12Z</time>
      </trkpt>
      <trkpt lat="43.62469" lon="7.05693">
        <ele>150</ele>
        <time>2010-09-29T11:14:13Z</time>
      </trkpt>
      <trkpt lat="43.62461" lon="7.05691">
        <ele>149</ele>
        <time>2010-09-29T11:14:15Z</time>
      </trkpt>
      <trkpt lat="43.62392" lon="7.05724">
        <ele>145</ele>
        <time>2010-09-29T11:14:30Z</time>
      </trkpt>
      <trkpt lat="43.62204" lon="7.05844">
        <ele>142</ele>
        <time>2010-09-29T11:15:00Z</time>
      </trkpt>
      <trkpt lat="43.62192" lon="7.05842">
        <ele>140</ele>
        <time>2010-09-29T11:15:03Z</time>
      </trkpt>
      <trkpt lat="43.62184" lon="7.05826">
        <ele>138</ele>
        <time>2010-09-29T11:15:06Z</time>
      </trkpt>
      <trkpt lat="43.62183" lon="7.05775">
        <ele>133</ele>
        <time>2010-09-29T11:15:12Z</time>
      </trkpt>
      <trkpt lat="43.6218" lon="7.05594">
        <ele>124</ele>
        <time>2010-09-29T11:15:33Z</time>
      </trkpt>
      <trkpt lat="43.62151" lon="7.0556">
        <ele>122</ele>
        <time>2010-09-29T11:15:39Z</time>
      </trkpt>
      <trkpt lat="43.62063" lon="7.05568">
        <ele>119</ele>
        <time>2010-09-29T11:15:57Z</time>
      </trkpt>
      <trkpt lat="43.62056" lon="7.05558">
        <ele>119</ele>
        <time>2010-09-29T11:16:00Z</time>
      </trkpt>
      <trkpt lat="43.62037" lon="7.05499">
        <ele>119</ele>
        <time>2010-09-29T11:16:15Z</time>
      </trkpt>
      <trkpt lat="43.62015" lon="7.05374">
        <ele>121</ele>
        <time>2010-09-29T11:16:47Z</time>
      </trkpt>
      <trkpt lat="43.61974" lon="7.05252">
        <ele>120</ele>
        <time>2010-09-29T11:17:18Z</time>
      </trkpt>
      <trkpt lat="43.61999" lon="7.05097">
        <ele>126</ele>
        <time>2010-09-29T11:17:49Z</time>
      </trkpt>
      <trkpt lat="43.62007" lon="7.05052">
        <ele>129</ele>
        <time>2010-09-29T11:18:00Z</time>
      </trkpt>
      <trkpt lat="43.62003" lon="7.05039">
        <ele>130</ele>
        <time>2010-09-29T11:18:04Z</time>
      </trkpt>
      <trkpt lat="43.61966" lon="7.05003">
        <ele>131</ele>
        <time>2010-09-29T11:18:21Z</time>
      </trkpt>
      <trkpt lat="43.61891" lon="7.04969">
        <ele>134</ele>
        <time>2010-09-29T11:18:52Z</time>
      </trkpt>
      <trkpt lat="43.61806" lon="7.04895">
        <ele>134</ele>
        <time>2010-09-29T11:19:16Z</time>
      </trkpt>
      <trkpt lat="43.61747" lon="7.04754">
        <ele>137</ele>
        <time>2010-09-29T11:19:48Z</time>
      </trkpt>
      <trkpt lat="43.61746" lon="7.04736">
        <ele>137</ele>
        <time>2010-09-29T11:19:51Z</time>
      </trkpt>
      <trkpt lat="43.6174" lon="7.04725">
        <ele>137</ele>
        <time>2010-09-29T11:19:53Z</time>
      </trkpt>
      <trkpt lat="43.61698" lon="7.04645">
        <ele>142</ele>
        <time>2010-09-29T11:20:10Z</time>
      </trkpt>
      <trkpt lat="43.61616" lon="7.04484">
        <ele>142</ele>
        <time>2010-09-29T11:20:44Z</time>
      </trkpt>
      <trkpt lat="43.61602" lon="7.04449">
        <ele>144</ele>
        <time>2010-09-29T11:20:50Z</time>
      </trkpt>
      <trkpt lat="43.61602" lon="7.04435">
        <ele>145</ele>
        <time>2010-09-29T11:20:52Z</time>
      </trkpt>
      <trkpt lat="43.61582" lon="7.044">
        <ele>145</ele>
        <time>2010-09-29T11:20:59Z</time>
      </trkpt>
      <trkpt lat="43.6158" lon="7.04382">
        <ele>145</ele>
        <time>2010-09-29T11:21:02Z</time>
      </trkpt>
      <trkpt lat="43.61588" lon="7.04355">
        <ele>145</ele>
        <time>2010-09-29T11:21:07Z</time>
      </trkpt>
      <trkpt lat="43.616" lon="7.04327">
        <ele>140</ele>
        <time>2010-09-29T11:21:11Z</time>
      </trkpt>
      <trkpt lat="43.61618" lon="7.04275">
        <ele>140</ele>
        <time>2010-09-29T11:21:24Z</time>
      </trkpt>
      <trkpt lat="43.61621" lon="7.0427">
        <ele>139</ele>
        <time>2010-09-29T11:22:32Z</time>
      </trkpt>
      <trkpt lat="43.61624" lon="7.042">
        <ele>137</ele>
        <time>2010-09-29T11:22:51Z</time>
      </trkpt>
      <trkpt lat="43.61616" lon="7.04159">
        <ele>137</ele>
        <time>2010-09-29T11:23:03Z</time>
      </trkpt>
      <trkpt lat="43.61609" lon="7.04149">
        <ele>137</ele>
        <time>2010-09-29T11:23:07Z</time>
      </trkpt>
      <trkpt lat="43.61602" lon="7.04149">
        <ele>137</ele>
        <time>2010-09-29T11:23:10Z</time>
      </trkpt>
      <trkpt lat="43.61567" lon="7.04157">
        <ele>137</ele>
        <time>2010-09-29T11:23:25Z</time>
      </trkpt>
      <trkpt lat="43.61558" lon="7.0417">
        <ele>137</ele>
        <time>2010-09-29T11:23:31Z</time>
      </trkpt>
      <trkpt lat="43.61553" lon="7.04173">
        <ele>138</ele>
        <time>2010-09-29T11:23:34Z</time>
      </trkpt>
      <trkpt lat="43.61544" lon="7.04168">
        <ele>138</ele>
        <time>2010-09-29T11:23:38Z</time>
      </trkpt>
      <trkpt lat="43.61535" lon="7.04158">
        <ele>138</ele>
        <time>2010-09-29T11:23:43Z</time>
      </trkpt>
      <trkpt lat="43.61534" lon="7.04143">
        <ele>138</ele>
        <time>2010-09-29T11:23:47Z</time>
      </trkpt>
      <trkpt lat="43.61534" lon="7.04133">
        <ele>138</ele>
        <time>2010-09-29T11:23:50Z</time>
      </trkpt>
      <trkpt lat="43.61536" lon="7.04127">
        <ele>138</ele>
        <time>2010-09-29T11:23:52Z</time>
      </trkpt>
      <trkpt lat="43.61547" lon="7.04121">
        <ele>137</ele>
        <time>2010-09-29T11:23:56Z</time>
      </trkpt>
      <trkpt lat="43.61578" lon="7.0403">
        <ele>140</ele>
        <time>2010-09-29T11:24:24Z</time>
      </trkpt>
      <trkpt lat="43.61612" lon="7.03922">
        <ele>144</ele>
        <time>2010-09-29T11:24:56Z</time>
      </trkpt>
      <trkpt lat="43.6163" lon="7.03794">
        <ele>147</ele>
        <time>2010-09-29T11:25:26Z</time>
      </trkpt>
      <trkpt lat="43.61631" lon="7.0378">
        <ele>147</ele>
        <time>2010-09-29T11:25:30Z</time>
      </trkpt>
      <trkpt lat="43.61613" lon="7.03734">
        <ele>149</ele>
        <time>2010-09-29T11:25:45Z</time>
      </trkpt>
      <trkpt lat="43.61544" lon="7.03652">
        <ele>154</ele>
        <time>2010-09-29T11:26:15Z</time>
      </trkpt>
      <trkpt lat="43.61526" lon="7.03636">
        <ele>157</ele>
        <time>2010-09-29T11:26:20Z</time>
      </trkpt>
      <trkpt lat="43.6151" lon="7.03626">
        <ele>157</ele>
        <time>2010-09-29T11:26:25Z</time>
      </trkpt>
      <trkpt lat="43.61404" lon="7.03657">
        <ele>158</ele>
        <time>2010-09-29T11:26:56Z</time>
      </trkpt>
      <trkpt lat="43.61383" lon="7.03658">
        <ele>158</ele>
        <time>2010-09-29T11:27:01Z</time>
      </trkpt>
      <trkpt lat="43.61325" lon="7.03605">
        <ele>159</ele>
        <time>2010-09-29T11:27:19Z</time>
      </trkpt>
      <trkpt lat="43.6132" lon="7.03553">
        <ele>159</ele>
        <time>2010-09-29T11:27:30Z</time>
      </trkpt>
      <trkpt lat="43.61312" lon="7.03438">
        <ele>159</ele>
        <time>2010-09-29T11:28:01Z</time>
      </trkpt>
      <trkpt lat="43.61287" lon="7.03329">
        <ele>163</ele>
        <time>2010-09-29T11:28:34Z</time>
      </trkpt>
      <trkpt lat="43.61266" lon="7.03269">
        <ele>164</ele>
        <time>2010-09-29T11:28:52Z</time>
      </trkpt>
      <trkpt lat="43.61247" lon="7.03255">
        <ele>164</ele>
        <time>2010-09-29T11:28:58Z</time>
      </trkpt>
      <trkpt lat="43.61215" lon="7.03249">
        <ele>167</ele>
        <time>2010-09-29T11:29:05Z</time>
      </trkpt>
      <trkpt lat="43.61203" lon="7.03247">
        <ele>167</ele>
        <time>2010-09-29T11:29:09Z</time>
      </trkpt>
      <trkpt lat="43.61202" lon="7.0323">
        <ele>167</ele>
        <time>2010-09-29T11:29:14Z</time>
      </trkpt>
      <trkpt lat="43.61215" lon="7.03159">
        <ele>167</ele>
        <time>2010-09-29T11:29:31Z</time>
      </trkpt>
      <trkpt lat="43.61211" lon="7.03146">
        <ele>167</ele>
        <time>2010-09-29T11:29:35Z</time>
      </trkpt>
      <trkpt lat="43.61201" lon="7.03118">
        <ele>167</ele>
        <time>2010-09-29T11:29:44Z</time>
      </trkpt>
      <trkpt lat="43.612" lon="7.03089">
        <ele>167</ele>
        <time>2010-09-29T11:29:52Z</time>
      </trkpt>
      <trkpt lat="43.61178" lon="7.0299">
        <ele>166</ele>
        <time>2010-09-29T11:30:23Z</time>
      </trkpt>
      <trkpt lat="43.61183" lon="7.02962">
        <ele>166</ele>
        <time>2010-09-29T11:30:30Z</time>
      </trkpt>
      <trkpt lat="43.61176" lon="7.02923">
        <ele>166</ele>
        <time>2010-09-29T11:30:43Z</time>
      </trkpt>
      <trkpt lat="43.61175" lon="7.029">
        <ele>167</ele>
        <time>2010-09-29T11:31:01Z</time>
      </trkpt>
      <trkpt lat="43.61182" lon="7.02892">
        <ele>167</ele>
        <time>2010-09-29T11:31:19Z</time>
      </trkpt>
      <trkpt lat="43.61204" lon="7.02879">
        <ele>168</ele>
        <time>2010-09-29T11:31:27Z</time>
      </trkpt>
      <trkpt lat="43.61201" lon="7.02884">
        <ele>168</ele>
        <time>2010-09-29T11:31:32Z</time>
      </trkpt>
      <trkpt lat="43.61176" lon="7.02906">
        <ele>170</ele>
        <time>2010-09-29T11:32:01Z</time>
      </trkpt>
      <trkpt lat="43.61162" lon="7.02899">
        <ele>171</ele>
        <time>2010-09-29T11:32:15Z</time>
      </trkpt>
      <trkpt lat="43.61144" lon="7.02862">
        <ele>175</ele>
        <time>2010-09-29T11:32:45Z</time>
      </trkpt>
      <trkpt lat="43.61137" lon="7.02809">
        <ele>180</ele>
        <time>2010-09-29T11:33:18Z</time>
      </trkpt>
      <trkpt lat="43.61121" lon="7.02749">
        <ele>183</ele>
        <time>2010-09-29T11:33:50Z</time>
      </trkpt>
      <trkpt lat="43.61119" lon="7.02742">
        <ele>184</ele>
        <time>2010-09-29T11:33:54Z</time>
      </trkpt>
      <trkpt lat="43.61121" lon="7.02736">
        <ele>185</ele>
        <time>2010-09-29T11:33:58Z</time>
      </trkpt>
      <trkpt lat="43.61127" lon="7.02735">
        <ele>185</ele>
        <time>2010-09-29T11:34:04Z</time>
      </trkpt>
      <trkpt lat="43.61155" lon="7.02728">
        <ele>189</ele>
        <time>2010-09-29T11:34:28Z</time>
      </trkpt>
      <trkpt lat="43.61169" lon="7.02704">
        <ele>190</ele>
        <time>2010-09-29T11:34:36Z</time>
      </trkpt>
      <trkpt lat="43.61185" lon="7.02615">
        <ele>193</ele>
        <time>2010-09-29T11:34:49Z</time>
      </trkpt>
      <trkpt lat="43.61157" lon="7.0256">
        <ele>195</ele>
        <time>2010-09-29T11:35:01Z</time>
      </trkpt>
      <trkpt lat="43.61152" lon="7.02545">
        <ele>194</ele>
        <time>2010-09-29T11:35:04Z</time>
      </trkpt>
      <trkpt lat="43.6114" lon="7.02475">
        <ele>194</ele>
        <time>2010-09-29T11:35:25Z</time>
      </trkpt>
      <trkpt lat="43.61149" lon="7.02464">
        <ele>194</ele>
        <time>2010-09-29T11:35:28Z</time>
      </trkpt>
      <trkpt lat="43.612" lon="7.02444">
        <ele>195</ele>
        <time>2010-09-29T11:35:39Z</time>
      </trkpt>
      <trkpt lat="43.61222" lon="7.02402">
        <ele>196</ele>
        <time>2010-09-29T11:35:56Z</time>
      </trkpt>
      <trkpt lat="43.61286" lon="7.02335">
        <ele>200</ele>
        <time>2010-09-29T11:36:32Z</time>
      </trkpt>
      <trkpt lat="43.61287" lon="7.02312">
        <ele>201</ele>
        <time>2010-09-29T11:36:42Z</time>
      </trkpt>
      <trkpt lat="43.61282" lon="7.02225">
        <ele>205</ele>
        <time>2010-09-29T11:37:24Z</time>
      </trkpt>
      <trkpt lat="43.61276" lon="7.02121">
        <ele>208</ele>
        <time>2010-09-29T11:37:57Z</time>
      </trkpt>
      <trkpt lat="43.61248" lon="7.01973">
        <ele>212</ele>
        <time>2010-09-29T11:38:30Z</time>
      </trkpt>
      <trkpt lat="43.61243" lon="7.01961">
        <ele>212</ele>
        <time>2010-09-29T11:38:33Z</time>
      </trkpt>
      <trkpt lat="43.61246" lon="7.01945">
        <ele>212</ele>
        <time>2010-09-29T11:38:36Z</time>
      </trkpt>
      <trkpt lat="43.61259" lon="7.01878">
        <ele>212</ele>
        <time>2010-09-29T11:39:00Z</time>
      </trkpt>
      <trkpt lat="43.61253" lon="7.01864">
        <ele>213</ele>
        <time>2010-09-29T11:39:18Z</time>
      </trkpt>
      <trkpt lat="43.61254" lon="7.01851">
        <ele>213</ele>
        <time>2010-09-29T11:39:29Z</time>
      </trkpt>
      <trkpt lat="43.61242" lon="7.01764">
        <ele>215</ele>
        <time>2010-09-29T11:40:02Z</time>
      </trkpt>
      <trkpt lat="43.61262" lon="7.01679">
        <ele>216</ele>
        <time>2010-09-29T11:40:33Z</time>
      </trkpt>
      <trkpt lat="43.61273" lon="7.01657">
        <ele>216</ele>
        <time>2010-09-29T11:40:50Z</time>
      </trkpt>
      <trkpt lat="43.61283" lon="7.0165">
        <ele>216</ele>
        <time>2010-09-29T11:41:16Z</time>
      </trkpt>
      <trkpt lat="43.61297" lon="7.01627">
        <ele>215</ele>
        <time>2010-09-29T11:41:28Z</time>
      </trkpt>
      <trkpt lat="43.61299" lon="7.01618">
        <ele>215</ele>
        <time>2010-09-29T11:41:31Z</time>
      </trkpt>
      <trkpt lat="43.61302" lon="7.01613">
        <ele>215</ele>
        <time>2010-09-29T11:41:35Z</time>
      </trkpt>
      <trkpt lat="43.61295" lon="7.01599">
        <ele>214</ele>
        <time>2010-09-29T11:41:44Z</time>
      </trkpt>
      <trkpt lat="43.61286" lon="7.01592">
        <ele>213</ele>
        <time>2010-09-29T11:41:46Z</time>
      </trkpt>
      <trkpt lat="43.61266" lon="7.01586">
        <ele>213</ele>
        <time>2010-09-29T11:41:51Z</time>
      </trkpt>
      <trkpt lat="43.61245" lon="7.01605">
        <ele>212</ele>
        <time>2010-09-29T11:41:56Z</time>
      </trkpt>
      <trkpt lat="43.61239" lon="7.01615">
        <ele>212</ele>
        <time>2010-09-29T11:42:00Z</time>
      </trkpt>
      <trkpt lat="43.61232" lon="7.01615">
        <ele>211</ele>
        <time>2010-09-29T11:42:06Z</time>
      </trkpt>
      <trkpt lat="43.61227" lon="7.01602">
        <ele>211</ele>
        <time>2010-09-29T11:42:13Z</time>
      </trkpt>
      <trkpt lat="43.61229" lon="7.01589">
        <ele>210</ele>
        <time>2010-09-29T11:42:16Z</time>
      </trkpt>
      <trkpt lat="43.61228" lon="7.01582">
        <ele>210</ele>
        <time>2010-09-29T11:42:19Z</time>
      </trkpt>
      <trkpt lat="43.61224" lon="7.01578">
        <ele>209</ele>
        <time>2010-09-29T11:42:23Z</time>
      </trkpt>
      <trkpt lat="43.61218" lon="7.01578">
        <ele>209</ele>
        <time>2010-09-29T11:42:25Z</time>
      </trkpt>
      <trkpt lat="43.61207" lon="7.01588">
        <ele>209</ele>
        <time>2010-09-29T11:42:28Z</time>
      </trkpt>
      <trkpt lat="43.61204" lon="7.01593">
        <ele>209</ele>
        <time>2010-09-29T11:42:29Z</time>
      </trkpt>
      <trkpt lat="43.61195" lon="7.01607">
        <ele>207</ele>
        <time>2010-09-29T11:42:32Z</time>
      </trkpt>
      <trkpt lat="43.61191" lon="7.01629">
        <ele>206</ele>
        <time>2010-09-29T11:42:36Z</time>
      </trkpt>
      <trkpt lat="43.61186" lon="7.01636">
        <ele>206</ele>
        <time>2010-09-29T11:42:38Z</time>
      </trkpt>
      <trkpt lat="43.61181" lon="7.0164">
        <ele>206</ele>
        <time>2010-09-29T11:42:40Z</time>
      </trkpt>
      <trkpt lat="43.61174" lon="7.01654">
        <ele>206</ele>
        <time>2010-09-29T11:42:46Z</time>
      </trkpt>
      <trkpt lat="43.61173" lon="7.01664">
        <ele>206</ele>
        <time>2010-09-29T11:42:48Z</time>
      </trkpt>
      <trkpt lat="43.61171" lon="7.01675">
        <ele>207</ele>
        <time>2010-09-29T11:42:50Z</time>
      </trkpt>
      <trkpt lat="43.61156" lon="7.01699">
        <ele>208</ele>
        <time>2010-09-29T11:42:55Z</time>
      </trkpt>
      <trkpt lat="43.61125" lon="7.01717">
        <ele>206</ele>
        <time>2010-09-29T11:43:03Z</time>
      </trkpt>
      <trkpt lat="43.61121" lon="7.01727">
        <ele>206</ele>
        <time>2010-09-29T11:43:05Z</time>
      </trkpt>
      <trkpt lat="43.61122" lon="7.01741">
        <ele>205</ele>
        <time>2010-09-29T11:43:08Z</time>
      </trkpt>
      <trkpt lat="43.61066" lon="7.01902">
        <ele>206</ele>
        <time>2010-09-29T11:43:39Z</time>
      </trkpt>
      <trkpt lat="43.6104" lon="7.02029">
        <ele>205</ele>
        <time>2010-09-29T11:44:09Z</time>
      </trkpt>
      <trkpt lat="43.61045" lon="7.02044">
        <ele>204</ele>
        <time>2010-09-29T11:44:14Z</time>
      </trkpt>
      <trkpt lat="43.61054" lon="7.02048">
        <ele>204</ele>
        <time>2010-09-29T11:44:18Z</time>
      </trkpt>
      <trkpt lat="43.61062" lon="7.0206">
        <ele>204</ele>
        <time>2010-09-29T11:44:22Z</time>
      </trkpt>
      <trkpt lat="43.61065" lon="7.02078">
        <ele>205</ele>
        <time>2010-09-29T11:44:24Z</time>
      </trkpt>
      <trkpt lat="43.61067" lon="7.02095">
        <ele>206</ele>
        <time>2010-09-29T11:44:26Z</time>
      </trkpt>
      <trkpt lat="43.61068" lon="7.02108">
        <ele>205</ele>
        <time>2010-09-29T11:44:28Z</time>
      </trkpt>
      <trkpt lat="43.61078" lon="7.02115">
        <ele>203</ele>
        <time>2010-09-29T11:44:30Z</time>
      </trkpt>
      <trkpt lat="43.61088" lon="7.02124">
        <ele>202</ele>
        <time>2010-09-29T11:44:32Z</time>
      </trkpt>
      <trkpt lat="43.61112" lon="7.02175">
        <ele>203</ele>
        <time>2010-09-29T11:44:40Z</time>
      </trkpt>
      <trkpt lat="43.61108" lon="7.02183">
        <ele>202</ele>
        <time>2010-09-29T11:44:53Z</time>
      </trkpt>
    </trkseg>
  </trk>
</gpx>